DFOA weather

Dano Airport
Dano, Ioba, Burkina Faso

Public forecast

Using degrees Celsius for public forecast. Weather courtesy of forecast.io.

Closest aviation weather report (METAR) to Dano Airport

Report is more than 6 hours old.

Closest report is Gaoua Airport, 45.3 nm (83.9 km) S. Retrieved 2009/09/21 17:00 UTC (10 years ago):

DFOG 211700Z 18004KT 9999 FEW020 FEW040CB NW NE BKN260 30/23

Closest aviation forecast (TAF) to Dano Airport

Closest forecast is Bobo Dioulasso Airport, 74.5 nm (137.9 km) W. Retrieved 2019-10-19 00:04 UTC (3 hours ago):

TAF DFOO 182300Z 1900/1924 20008KT 9999 FEW016 TEMPO 1914/1924 4000 TSRA SCT016 FEW033CB